sensor_id;sensor_type;location;lat;lon;timestamp;temperature;humidity
29575;DHT22;16507;51.046;6.406;2023-01-23T00:00:55;1.10;99.90
29575;DHT22;16507;51.046;6.406;2023-01-23T00:03:21;1.10;99.90
29575;DHT22;16507;51.046;6.406;2023-01-23T00:06:00;1.10;99.90
29575;DHT22;16507;51.046;6.406;2023-01-23T00:08:26;1.30;99.90
29575;DHT22;16507;51.046;6.406;2023-01-23T00:10:52;1.10;99.90
29575;DHT22;16507;51.046;6.406;2023-01-23T00:13:18;1.20;99.90
29575;DHT22;16507;51.046;6.406;2023-01-23T00:15:45;1.20;99.90
29575;DHT22;16507;51.046;6.406;2023-01-23T00:18:10;1.30;99.90
29575;DHT22;16507;51.046;6.406;2023-01-23T00:20:36;1.10;99.90
29575;DHT22;16507;51.046;6.406;2023-01-23T00:23:02;1.40;99.90
29575;DHT22;16507;51.046;6.406;2023-01-23T00:25:27;1.10;99.90
29575;DHT22;16507;51.046;6.406;2023-01-23T00:27:53;1.20;99.90
29575;DHT22;16507;51.046;6.406;2023-01-23T00:30:18;1.10;99.90
29575;DHT22;16507;51.046;6.406;2023-01-23T00:32:43;1.20;99.90
29575;DHT22;16507;51.046;6.406;2023-01-23T00:35:09;1.40;99.90
29575;DHT22;16507;51.046;6.406;2023-01-23T00:37:35;1.20;99.90
29575;DHT22;16507;51.046;6.406;2023-01-23T00:40:00;1.40;99.90
29575;DHT22;16507;51.046;6.406;2023-01-23T00:42:26;1.30;99.90
29575;DHT22;16507;51.046;6.406;2023-01-23T00:44:51;1.40;99.90
29575;DHT22;16507;51.046;6.406;2023-01-23T00:47:17;1.10;99.90
29575;DHT22;16507;51.046;6.406;2023-01-23T00:49:42;1.40;99.90
29575;DHT22;16507;51.046;6.406;2023-01-23T00:52:08;1.40;99.90
29575;DHT22;16507;51.046;6.406;2023-01-23T00:54:33;1.40;99.90
29575;DHT22;16507;51.046;6.406;2023-01-23T00:56:59;1.20;99.90
29575;DHT22;16507;51.046;6.406;2023-01-23T00:59:24;1.40;99.90
29575;DHT22;16507;51.046;6.406;2023-01-23T01:01:50;1.50;99.90
29575;DHT22;16507;51.046;6.406;2023-01-23T01:04:15;1.30;99.90
29575;DHT22;16507;51.046;6.406;2023-01-23T01:06:41;1.40;99.90
29575;DHT22;16507;51.046;6.406;2023-01-23T01:09:06;1.30;99.90
29575;DHT22;16507;51.046;6.406;2023-01-23T01:11:32;1.30;99.90
29575;DHT22;16507;51.046;6.406;2023-01-23T01:13:57;1.60;99.90
29575;DHT22;16507;51.046;6.406;2023-01-23T01:16:23;1.40;99.90
29575;DHT22;16507;51.046;6.406;2023-01-23T01:18:49;1.30;99.90
29575;DHT22;16507;51.046;6.406;2023-01-23T01:21:15;1.60;99.90
29575;DHT22;16507;51.046;6.406;2023-01-23T01:23:40;1.50;99.90
29575;DHT22;16507;51.046;6.406;2023-01-23T01:26:06;1.50;99.90
29575;DHT22;16507;51.046;6.406;2023-01-23T01:28:32;1.40;99.90
29575;DHT22;16507;51.046;6.406;2023-01-23T01:31:02;1.50;99.90
29575;DHT22;16507;51.046;6.406;2023-01-23T01:33:28;1.30;99.90
29575;DHT22;16507;51.046;6.406;2023-01-23T01:35:54;1.30;99.90
29575;DHT22;16507;51.046;6.406;2023-01-23T01:38:22;1.40;99.90
29575;DHT22;16507;51.046;6.406;2023-01-23T01:40:48;1.30;99.90
29575;DHT22;16507;51.046;6.406;2023-01-23T01:43:17;1.40;99.90
29575;DHT22;16507;51.046;6.406;2023-01-23T01:48:24;1.50;99.90
29575;DHT22;16507;51.046;6.406;2023-01-23T01:50:50;1.60;99.90
29575;DHT22;16507;51.046;6.406;2023-01-23T01:53:16;1.40;99.90
29575;DHT22;16507;51.046;6.406;2023-01-23T01:55:42;1.60;99.90
29575;DHT22;16507;51.046;6.406;2023-01-23T01:58:07;1.40;99.90
29575;DHT22;16507;51.046;6.406;2023-01-23T02:00:33;1.60;99.90
29575;DHT22;16507;51.046;6.406;2023-01-23T02:02:59;1.40;99.90
29575;DHT22;16507;51.046;6.406;2023-01-23T02:05:27;1.40;99.90
29575;DHT22;16507;51.046;6.406;2023-01-23T02:07:55;1.60;99.90
29575;DHT22;16507;51.046;6.406;2023-01-23T02:10:22;1.50;99.90
29575;DHT22;16507;51.046;6.406;2023-01-23T02:12:49;1.40;99.90
29575;DHT22;16507;51.046;6.406;2023-01-23T02:15:15;1.40;99.90
29575;DHT22;16507;51.046;6.406;2023-01-23T02:17:41;1.40;99.90
29575;DHT22;16507;51.046;6.406;2023-01-23T02:25:19;1.60;99.90
29575;DHT22;16507;51.046;6.406;2023-01-23T02:27:46;1.50;99.90
29575;DHT22;16507;51.046;6.406;2023-01-23T02:30:11;1.50;99.90
29575;DHT22;16507;51.046;6.406;2023-01-23T02:32:38;1.50;99.90
29575;DHT22;16507;51.046;6.406;2023-01-23T02:35:11;1.50;99.90
29575;DHT22;16507;51.046;6.406;2023-01-23T02:37:39;1.50;99.90
29575;DHT22;16507;51.046;6.406;2023-01-23T02:40:07;1.50;99.90
29575;DHT22;16507;51.046;6.406;2023-01-23T02:42:32;1.70;99.90
29575;DHT22;16507;51.046;6.406;2023-01-23T02:44:58;1.60;99.90
29575;DHT22;16507;51.046;6.406;2023-01-23T02:47:24;1.50;99.90
29575;DHT22;16507;51.046;6.406;2023-01-23T02:49:50;1.50;99.90
29575;DHT22;16507;51.046;6.406;2023-01-23T02:52:15;1.60;99.90
29575;DHT22;16507;51.046;6.406;2023-01-23T02:54:41;1.50;99.90
29575;DHT22;16507;51.046;6.406;2023-01-23T02:57:06;1.40;99.90
29575;DHT22;16507;51.046;6.406;2023-01-23T02:59:32;1.50;99.90
29575;DHT22;16507;51.046;6.406;2023-01-23T03:02:16;1.60;99.90
29575;DHT22;16507;51.046;6.406;2023-01-23T03:04:42;1.50;99.90
29575;DHT22;16507;51.046;6.406;2023-01-23T03:07:07;1.50;99.90
29575;DHT22;16507;51.046;6.406;2023-01-23T03:09:33;1.40;99.90
29575;DHT22;16507;51.046;6.406;2023-01-23T03:11:58;1.50;99.90
29575;DHT22;16507;51.046;6.406;2023-01-23T03:14:25;1.50;99.90
29575;DHT22;16507;51.046;6.406;2023-01-23T03:16:51;1.60;99.90
29575;DHT22;16507;51.046;6.406;2023-01-23T03:19:19;1.60;99.90
29575;DHT22;16507;51.046;6.406;2023-01-23T03:21:44;1.60;99.90
29575;DHT22;16507;51.046;6.406;2023-01-23T03:24:11;1.60;99.90
29575;DHT22;16507;51.046;6.406;2023-01-23T03:26:37;1.50;99.90
29575;DHT22;16507;51.046;6.406;2023-01-23T03:29:03;1.50;99.90
29575;DHT22;16507;51.046;6.406;2023-01-23T03:31:47;1.60;99.90
29575;DHT22;16507;51.046;6.406;2023-01-23T03:34:13;1.50;99.90
29575;DHT22;16507;51.046;6.406;2023-01-23T03:36:38;1.50;99.90
29575;DHT22;16507;51.046;6.406;2023-01-23T03:39:06;1.60;99.90
29575;DHT22;16507;51.046;6.406;2023-01-23T03:41:51;1.50;99.90
29575;DHT22;16507;51.046;6.406;2023-01-23T03:44:17;1.50;99.90
29575;DHT22;16507;51.046;6.406;2023-01-23T03:46:43;1.60;99.90
29575;DHT22;16507;51.046;6.406;2023-01-23T03:49:09;1.60;99.90
29575;DHT22;16507;51.046;6.406;2023-01-23T03:51:35;1.60;99.90
29575;DHT22;16507;51.046;6.406;2023-01-23T03:54:00;1.50;99.90
29575;DHT22;16507;51.046;6.406;2023-01-23T03:56:26;1.60;99.90
29575;DHT22;16507;51.046;6.406;2023-01-23T03:58:51;1.50;99.90
29575;DHT22;16507;51.046;6.406;2023-01-23T04:01:17;1.50;99.90
29575;DHT22;16507;51.046;6.406;2023-01-23T04:03:42;1.50;99.90
29575;DHT22;16507;51.046;6.406;2023-01-23T04:06:08;1.40;99.90
29575;DHT22;16507;51.046;6.406;2023-01-23T04:08:33;1.50;99.90
29575;DHT22;16507;51.046;6.406;2023-01-23T04:11:00;1.50;99.90
29575;DHT22;16507;51.046;6.406;2023-01-23T04:13:25;1.40;99.90
29575;DHT22;16507;51.046;6.406;2023-01-23T04:15:51;1.50;99.90
29575;DHT22;16507;51.046;6.406;2023-01-23T04:18:16;1.30;99.90
29575;DHT22;16507;51.046;6.406;2023-01-23T04:20:42;1.40;99.90
29575;DHT22;16507;51.046;6.406;2023-01-23T04:23:07;1.50;99.90
29575;DHT22;16507;51.046;6.406;2023-01-23T04:25:33;1.40;99.90
29575;DHT22;16507;51.046;6.406;2023-01-23T04:27:58;1.40;99.90
29575;DHT22;16507;51.046;6.406;2023-01-23T04:30:24;1.40;99.90
29575;DHT22;16507;51.046;6.406;2023-01-23T04:32:49;1.50;99.90
29575;DHT22;16507;51.046;6.406;2023-01-23T04:35:15;1.50;99.90
29575;DHT22;16507;51.046;6.406;2023-01-23T04:37:40;1.50;99.90
29575;DHT22;16507;51.046;6.406;2023-01-23T04:40:06;1.50;99.90
29575;DHT22;16507;51.046;6.406;2023-01-23T04:42:31;1.40;99.90
29575;DHT22;16507;51.046;6.406;2023-01-23T04:44:57;1.50;99.90
29575;DHT22;16507;51.046;6.406;2023-01-23T04:47:22;1.40;99.90
29575;DHT22;16507;51.046;6.406;2023-01-23T04:49:48;1.50;99.90
29575;DHT22;16507;51.046;6.406;2023-01-23T04:52:13;1.50;99.90
29575;DHT22;16507;51.046;6.406;2023-01-23T04:54:39;1.40;99.90
29575;DHT22;16507;51.046;6.406;2023-01-23T04:57:04;1.40;99.90
29575;DHT22;16507;51.046;6.406;2023-01-23T04:59:30;1.40;99.90
29575;DHT22;16507;51.046;6.406;2023-01-23T05:01:55;1.40;99.90
29575;DHT22;16507;51.046;6.406;2023-01-23T05:04:21;1.40;99.90
29575;DHT22;16507;51.046;6.406;2023-01-23T05:06:46;1.40;99.90
29575;DHT22;16507;51.046;6.406;2023-01-23T05:09:12;1.30;99.90
29575;DHT22;16507;51.046;6.406;2023-01-23T05:11:37;1.40;99.90
29575;DHT22;16507;51.046;6.406;2023-01-23T05:14:03;1.40;99.90
29575;DHT22;16507;51.046;6.406;2023-01-23T05:16:28;1.30;99.90
29575;DHT22;16507;51.046;6.406;2023-01-23T05:18:54;1.40;99.90
29575;DHT22;16507;51.046;6.406;2023-01-23T05:21:19;1.40;99.90
29575;DHT22;16507;51.046;6.406;2023-01-23T05:23:45;1.40;99.90
29575;DHT22;16507;51.046;6.406;2023-01-23T05:26:10;1.30;99.90
29575;DHT22;16507;51.046;6.406;2023-01-23T05:28:36;1.40;99.90
29575;DHT22;16507;51.046;6.406;2023-01-23T05:31:01;1.40;99.90
29575;DHT22;16507;51.046;6.406;2023-01-23T05:33:27;1.40;99.90
29575;DHT22;16507;51.046;6.406;2023-01-23T05:35:57;1.40;99.90
29575;DHT22;16507;51.046;6.406;2023-01-23T05:38:22;1.20;99.90
29575;DHT22;16507;51.046;6.406;2023-01-23T05:40:48;1.20;99.90
29575;DHT22;16507;51.046;6.406;2023-01-23T05:43:14;1.30;99.90
29575;DHT22;16507;51.046;6.406;2023-01-23T05:45:39;1.20;99.90
29575;DHT22;16507;51.046;6.406;2023-01-23T05:48:05;1.30;99.90
29575;DHT22;16507;51.046;6.406;2023-01-23T05:50:30;1.30;99.90
29575;DHT22;16507;51.046;6.406;2023-01-23T05:52:56;1.10;99.90
29575;DHT22;16507;51.046;6.406;2023-01-23T05:55:21;1.00;99.90
29575;DHT22;16507;51.046;6.406;2023-01-23T05:57:47;1.20;99.90
29575;DHT22;16507;51.046;6.406;2023-01-23T06:00:13;1.20;99.90
29575;DHT22;16507;51.046;6.406;2023-01-23T06:02:38;1.10;99.90
29575;DHT22;16507;51.046;6.406;2023-01-23T06:05:04;1.20;99.90
29575;DHT22;16507;51.046;6.406;2023-01-23T06:07:30;1.10;99.90
29575;DHT22;16507;51.046;6.406;2023-01-23T06:09:55;1.20;99.90
29575;DHT22;16507;51.046;6.406;2023-01-23T06:12:21;1.10;99.90
29575;DHT22;16507;51.046;6.406;2023-01-23T06:14:47;1.10;99.90
29575;DHT22;16507;51.046;6.406;2023-01-23T06:17:12;1.00;99.90
29575;DHT22;16507;51.046;6.406;2023-01-23T06:19:38;1.20;99.90
29575;DHT22;16507;51.046;6.406;2023-01-23T06:22:03;1.20;99.90
29575;DHT22;16507;51.046;6.406;2023-01-23T06:24:29;1.10;99.90
29575;DHT22;16507;51.046;6.406;2023-01-23T06:26:54;1.10;99.90
29575;DHT22;16507;51.046;6.406;2023-01-23T06:29:20;1.10;99.90
29575;DHT22;16507;51.046;6.406;2023-01-23T06:31:45;1.10;99.90
29575;DHT22;16507;51.046;6.406;2023-01-23T06:34:12;1.30;99.90
29575;DHT22;16507;51.046;6.406;2023-01-23T06:36:37;1.20;99.90
29575;DHT22;16507;51.046;6.406;2023-01-23T06:39:04;1.20;99.90
29575;DHT22;16507;51.046;6.406;2023-01-23T06:41:30;1.30;99.90
29575;DHT22;16507;51.046;6.406;2023-01-23T06:43:55;1.10;99.90
29575;DHT22;16507;51.046;6.406;2023-01-23T06:46:21;1.20;99.90
29575;DHT22;16507;51.046;6.406;2023-01-23T06:48:47;1.20;99.90
29575;DHT22;16507;51.046;6.406;2023-01-23T06:51:13;1.20;99.90
29575;DHT22;16507;51.046;6.406;2023-01-23T06:53:38;1.20;99.90
29575;DHT22;16507;51.046;6.406;2023-01-23T06:56:05;1.00;99.90
29575;DHT22;16507;51.046;6.406;2023-01-23T06:58:31;1.10;99.90
29575;DHT22;16507;51.046;6.406;2023-01-23T07:00:57;1.20;99.90
29575;DHT22;16507;51.046;6.406;2023-01-23T07:03:22;1.10;99.90
29575;DHT22;16507;51.046;6.406;2023-01-23T07:05:48;1.00;99.90
29575;DHT22;16507;51.046;6.406;2023-01-23T07:08:14;1.10;99.90
29575;DHT22;16507;51.046;6.406;2023-01-23T07:10:39;1.00;99.90
29575;DHT22;16507;51.046;6.406;2023-01-23T07:13:06;1.10;99.90
29575;DHT22;16507;51.046;6.406;2023-01-23T07:15:32;1.10;99.90
29575;DHT22;16507;51.046;6.406;2023-01-23T07:17:58;1.10;99.90
29575;DHT22;16507;51.046;6.406;2023-01-23T07:20:23;1.10;99.90
29575;DHT22;16507;51.046;6.406;2023-01-23T07:22:52;1.20;99.90
29575;DHT22;16507;51.046;6.406;2023-01-23T07:25:17;1.20;99.90
29575;DHT22;16507;51.046;6.406;2023-01-23T07:27:43;1.40;99.90
29575;DHT22;16507;51.046;6.406;2023-01-23T07:30:09;1.40;99.90
29575;DHT22;16507;51.046;6.406;2023-01-23T07:32:34;1.30;99.90
29575;DHT22;16507;51.046;6.406;2023-01-23T07:35:00;1.30;99.90
29575;DHT22;16507;51.046;6.406;2023-01-23T07:37:25;1.30;99.90
29575;DHT22;16507;51.046;6.406;2023-01-23T07:39:51;1.40;99.90
29575;DHT22;16507;51.046;6.406;2023-01-23T07:42:16;1.40;99.90
29575;DHT22;16507;51.046;6.406;2023-01-23T07:44:42;1.40;99.90
29575;DHT22;16507;51.046;6.406;2023-01-23T07:47:07;1.50;99.90
29575;DHT22;16507;51.046;6.406;2023-01-23T07:49:33;1.40;99.90
29575;DHT22;16507;51.046;6.406;2023-01-23T07:51:58;1.40;99.90
29575;DHT22;16507;51.046;6.406;2023-01-23T07:54:24;1.40;99.90
29575;DHT22;16507;51.046;6.406;2023-01-23T07:56:50;1.40;99.90
29575;DHT22;16507;51.046;6.406;2023-01-23T07:59:16;1.40;99.90
29575;DHT22;16507;51.046;6.406;2023-01-23T08:01:41;1.40;99.90
29575;DHT22;16507;51.046;6.406;2023-01-23T08:04:07;1.40;99.90
29575;DHT22;16507;51.046;6.406;2023-01-23T08:06:32;1.50;99.90
29575;DHT22;16507;51.046;6.406;2023-01-23T08:08:58;1.60;99.90
29575;DHT22;16507;51.046;6.406;2023-01-23T08:11:24;1.60;99.90
29575;DHT22;16507;51.046;6.406;2023-01-23T08:13:50;1.60;99.90
29575;DHT22;16507;51.046;6.406;2023-01-23T08:16:16;1.50;99.90
29575;DHT22;16507;51.046;6.406;2023-01-23T08:18:42;1.60;99.90
29575;DHT22;16507;51.046;6.406;2023-01-23T08:21:08;1.60;99.90
29575;DHT22;16507;51.046;6.406;2023-01-23T08:23:34;1.50;99.90
29575;DHT22;16507;51.046;6.406;2023-01-23T08:26:01;1.60;99.90
29575;DHT22;16507;51.046;6.406;2023-01-23T08:28:26;1.60;99.90
29575;DHT22;16507;51.046;6.406;2023-01-23T08:30:52;1.60;99.90
29575;DHT22;16507;51.046;6.406;2023-01-23T08:33:18;1.70;99.90
29575;DHT22;16507;51.046;6.406;2023-01-23T08:35:48;1.60;99.90
29575;DHT22;16507;51.046;6.406;2023-01-23T08:38:13;1.60;99.90
29575;DHT22;16507;51.046;6.406;2023-01-23T08:40:39;1.60;99.90
29575;DHT22;16507;51.046;6.406;2023-01-23T08:43:04;1.70;99.90
29575;DHT22;16507;51.046;6.406;2023-01-23T08:45:30;1.60;99.90
29575;DHT22;16507;51.046;6.406;2023-01-23T08:47:55;1.80;99.90
29575;DHT22;16507;51.046;6.406;2023-01-23T08:50:21;1.70;99.90
29575;DHT22;16507;51.046;6.406;2023-01-23T08:52:46;1.70;99.90
29575;DHT22;16507;51.046;6.406;2023-01-23T08:55:11;1.70;99.90
29575;DHT22;16507;51.046;6.406;2023-01-23T08:57:37;1.80;99.90
29575;DHT22;16507;51.046;6.406;2023-01-23T09:00:03;1.80;99.90
29575;DHT22;16507;51.046;6.406;2023-01-23T09:02:28;1.70;99.90
29575;DHT22;16507;51.046;6.406;2023-01-23T09:04:54;1.80;99.90
29575;DHT22;16507;51.046;6.406;2023-01-23T09:07:19;1.80;99.90
29575;DHT22;16507;51.046;6.406;2023-01-23T09:09:45;1.90;99.90
29575;DHT22;16507;51.046;6.406;2023-01-23T09:12:10;1.90;99.90
29575;DHT22;16507;51.046;6.406;2023-01-23T09:14:36;1.90;99.90
29575;DHT22;16507;51.046;6.406;2023-01-23T09:17:01;1.90;99.90
29575;DHT22;16507;51.046;6.406;2023-01-23T09:19:29;1.90;99.90
29575;DHT22;16507;51.046;6.406;2023-01-23T09:21:54;2.00;99.90
29575;DHT22;16507;51.046;6.406;2023-01-23T09:24:21;2.00;99.90
29575;DHT22;16507;51.046;6.406;2023-01-23T09:26:46;2.00;99.90
29575;DHT22;16507;51.046;6.406;2023-01-23T09:29:12;2.10;99.90
29575;DHT22;16507;51.046;6.406;2023-01-23T09:31:38;2.10;99.90
29575;DHT22;16507;51.046;6.406;2023-01-23T09:34:04;2.10;99.90
29575;DHT22;16507;51.046;6.406;2023-01-23T09:36:32;2.10;99.90
29575;DHT22;16507;51.046;6.406;2023-01-23T09:38:57;2.10;99.90
29575;DHT22;16507;51.046;6.406;2023-01-23T09:41:24;2.20;99.90
29575;DHT22;16507;51.046;6.406;2023-01-23T09:46:26;2.20;99.90
29575;DHT22;16507;51.046;6.406;2023-01-23T09:49:02;2.30;99.90
29575;DHT22;16507;51.046;6.406;2023-01-23T09:54:05;2.40;99.90
29575;DHT22;16507;51.046;6.406;2023-01-23T09:56:37;2.50;99.90
29575;DHT22;16507;51.046;6.406;2023-01-23T10:01:35;2.40;99.90
29575;DHT22;16507;51.046;6.406;2023-01-23T10:04:01;2.50;99.90
29575;DHT22;16507;51.046;6.406;2023-01-23T10:06:28;2.40;99.90
29575;DHT22;16507;51.046;6.406;2023-01-23T10:11:26;2.50;99.90
29575;DHT22;16507;51.046;6.406;2023-01-23T10:16:41;2.60;99.90
29575;DHT22;16507;51.046;6.406;2023-01-23T10:21:42;2.70;99.90
29575;DHT22;16507;51.046;6.406;2023-01-23T10:26:44;2.60;99.90
29575;DHT22;16507;51.046;6.406;2023-01-23T10:31:37;2.60;99.90
29575;DHT22;16507;51.046;6.406;2023-01-23T10:36:35;2.70;99.90
29575;DHT22;16507;51.046;6.406;2023-01-23T10:39:08;2.70;99.90
29575;DHT22;16507;51.046;6.406;2023-01-23T10:41:37;2.70;99.90
29575;DHT22;16507;51.046;6.406;2023-01-23T10:44:14;2.80;99.90
29575;DHT22;16507;51.046;6.406;2023-01-23T10:46:47;2.80;99.90
29575;DHT22;16507;51.046;6.406;2023-01-23T10:49:27;2.80;99.90
29575;DHT22;16507;51.046;6.406;2023-01-23T10:51:54;2.70;99.90
29575;DHT22;16507;51.046;6.406;2023-01-23T10:54:20;2.70;99.90
29575;DHT22;16507;51.046;6.406;2023-01-23T10:59:25;2.80;99.90
29575;DHT22;16507;51.046;6.406;2023-01-23T11:01:59;2.80;99.90
29575;DHT22;16507;51.046;6.406;2023-01-23T11:04:26;2.70;99.90
29575;DHT22;16507;51.046;6.406;2023-01-23T11:09:30;2.70;99.90
29575;DHT22;16507;51.046;6.406;2023-01-23T11:11:59;2.80;99.90
29575;DHT22;16507;51.046;6.406;2023-01-23T11:14:25;2.80;99.90
29575;DHT22;16507;51.046;6.406;2023-01-23T11:17:10;2.70;99.90
29575;DHT22;16507;51.046;6.406;2023-01-23T11:19:38;2.80;99.90
29575;DHT22;16507;51.046;6.406;2023-01-23T11:22:04;2.80;99.90
29575;DHT22;16507;51.046;6.406;2023-01-23T11:24:35;2.90;99.90
29575;DHT22;16507;51.046;6.406;2023-01-23T11:30:18;2.90;99.90
29575;DHT22;16507;51.046;6.406;2023-01-23T11:32:20;2.90;99.90
29575;DHT22;16507;51.046;6.406;2023-01-23T11:34:48;2.90;99.90
29575;DHT22;16507;51.046;6.406;2023-01-23T11:37:19;2.90;99.90
29575;DHT22;16507;51.046;6.406;2023-01-23T11:42:18;2.90;99.90
29575;DHT22;16507;51.046;6.406;2023-01-23T11:44:44;3.00;99.90
29575;DHT22;16507;51.046;6.406;2023-01-23T11:49:49;2.90;99.90
29575;DHT22;16507;51.046;6.406;2023-01-23T12:05:03;3.10;99.90
29575;DHT22;16507;51.046;6.406;2023-01-23T12:08:15;3.00;99.90
29575;DHT22;16507;51.046;6.406;2023-01-23T12:12:50;3.10;99.90
29575;DHT22;16507;51.046;6.406;2023-01-23T12:25:31;3.10;99.90
29575;DHT22;16507;51.046;6.406;2023-01-23T12:31:03;3.10;99.90
29575;DHT22;16507;51.046;6.406;2023-01-23T12:46:04;3.30;99.90
29575;DHT22;16507;51.046;6.406;2023-01-23T12:48:38;3.30;99.90
29575;DHT22;16507;51.046;6.406;2023-01-23T12:51:49;3.30;99.90
29575;DHT22;16507;51.046;6.406;2023-01-23T12:53:55;3.30;99.90
29575;DHT22;16507;51.046;6.406;2023-01-23T12:56:24;3.30;99.90
29575;DHT22;16507;51.046;6.406;2023-01-23T13:01:45;3.30;99.90
29575;DHT22;16507;51.046;6.406;2023-01-23T13:06:44;3.30;99.90
29575;DHT22;16507;51.046;6.406;2023-01-23T13:09:19;3.30;99.90
29575;DHT22;16507;51.046;6.406;2023-01-23T13:11:59;3.30;99.90
29575;DHT22;16507;51.046;6.406;2023-01-23T13:16:54;3.40;99.90
29575;DHT22;16507;51.046;6.406;2023-01-23T13:22:25;3.40;99.90
29575;DHT22;16507;51.046;6.406;2023-01-23T13:32:56;3.30;99.90
29575;DHT22;16507;51.046;6.406;2023-01-23T13:51:53;3.30;99.90
29575;DHT22;16507;51.046;6.406;2023-01-23T13:54:21;3.30;99.90
29575;DHT22;16507;51.046;6.406;2023-01-23T13:57:08;3.30;99.90
29575;DHT22;16507;51.046;6.406;2023-01-23T13:59:35;3.30;99.90
29575;DHT22;16507;51.046;6.406;2023-01-23T14:02:23;3.30;99.90
29575;DHT22;16507;51.046;6.406;2023-01-23T14:05:16;3.30;99.90
29575;DHT22;16507;51.046;6.406;2023-01-23T14:07:44;3.30;99.90
29575;DHT22;16507;51.046;6.406;2023-01-23T14:12:39;3.20;99.90
29575;DHT22;16507;51.046;6.406;2023-01-23T14:15:15;3.20;99.90
29575;DHT22;16507;51.046;6.406;2023-01-23T14:18:00;3.30;99.90
29575;DHT22;16507;51.046;6.406;2023-01-23T14:20:25;3.20;99.90
29575;DHT22;16507;51.046;6.406;2023-01-23T14:22:52;3.20;99.90
29575;DHT22;16507;51.046;6.406;2023-01-23T14:25:18;3.20;99.90
29575;DHT22;16507;51.046;6.406;2023-01-23T14:27:43;3.20;99.90
29575;DHT22;16507;51.046;6.406;2023-01-23T14:32:37;3.20;99.90
29575;DHT22;16507;51.046;6.406;2023-01-23T14:35:16;3.20;99.90
29575;DHT22;16507;51.046;6.406;2023-01-23T14:37:41;3.20;99.90
29575;DHT22;16507;51.046;6.406;2023-01-23T14:40:14;3.10;99.90
29575;DHT22;16507;51.046;6.406;2023-01-23T14:42:40;3.10;99.90
29575;DHT22;16507;51.046;6.406;2023-01-23T14:45:07;3.10;99.90
29575;DHT22;16507;51.046;6.406;2023-01-23T14:47:39;3.10;99.90
29575;DHT22;16507;51.046;6.406;2023-01-23T14:50:09;3.10;99.90
29575;DHT22;16507;51.046;6.406;2023-01-23T14:52:36;3.20;99.90
29575;DHT22;16507;51.046;6.406;2023-01-23T14:55:01;3.10;99.90
29575;DHT22;16507;51.046;6.406;2023-01-23T14:57:27;3.10;99.90
29575;DHT22;16507;51.046;6.406;2023-01-23T14:59:56;3.10;99.90
29575;DHT22;16507;51.046;6.406;2023-01-23T15:07:31;3.10;99.90
29575;DHT22;16507;51.046;6.406;2023-01-23T15:09:56;3.00;99.90
29575;DHT22;16507;51.046;6.406;2023-01-23T15:12:22;3.10;99.90
29575;DHT22;16507;51.046;6.406;2023-01-23T15:14:49;3.10;99.90
29575;DHT22;16507;51.046;6.406;2023-01-23T15:17:17;3.10;99.90
29575;DHT22;16507;51.046;6.406;2023-01-23T15:19:47;3.10;99.90
29575;DHT22;16507;51.046;6.406;2023-01-23T15:24:38;3.00;99.90
29575;DHT22;16507;51.046;6.406;2023-01-23T15:27:05;3.00;99.90
29575;DHT22;16507;51.046;6.406;2023-01-23T15:29:32;3.00;99.90
29575;DHT22;16507;51.046;6.406;2023-01-23T15:31:58;3.00;99.90
29575;DHT22;16507;51.046;6.406;2023-01-23T15:39:25;2.90;99.90
29575;DHT22;16507;51.046;6.406;2023-01-23T15:41:53;2.90;99.90
29575;DHT22;16507;51.046;6.406;2023-01-23T15:44:20;2.90;99.90
29575;DHT22;16507;51.046;6.406;2023-01-23T15:46:45;2.90;99.90
29575;DHT22;16507;51.046;6.406;2023-01-23T15:49:11;2.90;99.90
29575;DHT22;16507;51.046;6.406;2023-01-23T15:51:37;2.90;99.90
29575;DHT22;16507;51.046;6.406;2023-01-23T15:54:03;2.90;99.90
29575;DHT22;16507;51.046;6.406;2023-01-23T15:56:30;2.80;99.90
29575;DHT22;16507;51.046;6.406;2023-01-23T15:58:56;2.80;99.90
29575;DHT22;16507;51.046;6.406;2023-01-23T16:01:23;2.80;99.90
29575;DHT22;16507;51.046;6.406;2023-01-23T16:03:49;2.80;99.90
29575;DHT22;16507;51.046;6.406;2023-01-23T16:06:15;2.80;99.90
29575;DHT22;16507;51.046;6.406;2023-01-23T16:08:42;2.80;99.90
29575;DHT22;16507;51.046;6.406;2023-01-23T16:11:08;2.80;99.90
29575;DHT22;16507;51.046;6.406;2023-01-23T16:13:34;2.80;99.90
29575;DHT22;16507;51.046;6.406;2023-01-23T16:15:59;2.70;99.90
29575;DHT22;16507;51.046;6.406;2023-01-23T16:18:25;2.70;99.90
29575;DHT22;16507;51.046;6.406;2023-01-23T16:20:50;2.70;99.90
29575;DHT22;16507;51.046;6.406;2023-01-23T16:23:19;2.70;99.90
29575;DHT22;16507;51.046;6.406;2023-01-23T16:25:46;2.70;99.90
29575;DHT22;16507;51.046;6.406;2023-01-23T16:28:15;2.70;99.90
29575;DHT22;16507;51.046;6.406;2023-01-23T16:30:41;2.70;99.90
29575;DHT22;16507;51.046;6.406;2023-01-23T16:33:07;2.60;99.90
29575;DHT22;16507;51.046;6.406;2023-01-23T16:35:33;2.60;99.90
29575;DHT22;16507;51.046;6.406;2023-01-23T16:37:58;2.60;99.90
29575;DHT22;16507;51.046;6.406;2023-01-23T16:40:25;2.60;99.90
29575;DHT22;16507;51.046;6.406;2023-01-23T16:42:52;2.50;99.90
29575;DHT22;16507;51.046;6.406;2023-01-23T16:45:21;2.50;99.90
29575;DHT22;16507;51.046;6.406;2023-01-23T16:47:47;2.50;99.90
29575;DHT22;16507;51.046;6.406;2023-01-23T16:50:13;2.50;99.90
29575;DHT22;16507;51.046;6.406;2023-01-23T16:52:39;2.50;99.90
29575;DHT22;16507;51.046;6.406;2023-01-23T16:55:10;2.50;99.90
29575;DHT22;16507;51.046;6.406;2023-01-23T16:57:40;2.50;99.90
29575;DHT22;16507;51.046;6.406;2023-01-23T17:00:06;2.50;99.90
29575;DHT22;16507;51.046;6.406;2023-01-23T17:02:32;2.50;99.90
29575;DHT22;16507;51.046;6.406;2023-01-23T17:04:57;2.50;99.90
29575;DHT22;16507;51.046;6.406;2023-01-23T17:07:23;2.50;99.90
29575;DHT22;16507;51.046;6.406;2023-01-23T17:09:48;2.50;99.90
29575;DHT22;16507;51.046;6.406;2023-01-23T17:12:15;2.50;99.90
29575;DHT22;16507;51.046;6.406;2023-01-23T17:14:41;2.50;99.90
29575;DHT22;16507;51.046;6.406;2023-01-23T17:17:11;2.50;99.90
29575;DHT22;16507;51.046;6.406;2023-01-23T17:19:38;2.50;99.90
29575;DHT22;16507;51.046;6.406;2023-01-23T17:22:06;2.50;99.90
29575;DHT22;16507;51.046;6.406;2023-01-23T17:24:32;2.50;99.90
29575;DHT22;16507;51.046;6.406;2023-01-23T17:26:58;2.50;99.90
29575;DHT22;16507;51.046;6.406;2023-01-23T17:29:23;2.50;99.90
29575;DHT22;16507;51.046;6.406;2023-01-23T17:31:49;2.50;99.90
29575;DHT22;16507;51.046;6.406;2023-01-23T17:34:22;2.50;99.90
29575;DHT22;16507;51.046;6.406;2023-01-23T17:36:48;2.50;99.90
29575;DHT22;16507;51.046;6.406;2023-01-23T17:39:14;2.50;99.90
29575;DHT22;16507;51.046;6.406;2023-01-23T17:41:40;2.50;99.90
29575;DHT22;16507;51.046;6.406;2023-01-23T17:44:05;2.50;99.90
29575;DHT22;16507;51.046;6.406;2023-01-23T17:46:31;2.40;99.90
29575;DHT22;16507;51.046;6.406;2023-01-23T17:48:57;2.40;99.90
29575;DHT22;16507;51.046;6.406;2023-01-23T17:51:24;2.40;99.90
29575;DHT22;16507;51.046;6.406;2023-01-23T17:53:49;2.40;99.90
29575;DHT22;16507;51.046;6.406;2023-01-23T17:56:15;2.40;99.90
29575;DHT22;16507;51.046;6.406;2023-01-23T17:58:41;2.40;99.90
29575;DHT22;16507;51.046;6.406;2023-01-23T18:01:24;2.40;99.90